KCN09 WARA-WIHH
Flight info
| Callsign | KCN09 |
|---|---|
| Flight time | N/A |
| Altitude | 36000 |
| Route | SBR T2 KALUT T6 KURUS |
| Aircraft | B738/M-SDE2E3FGHIRWXY/LB1 |
Departure
| Time | 2026-04-27 05:51 |
|---|---|
| Airport | Abdul Rachman Saleh Airport (WARA) |
Arrival
| Time | N/A |
|---|---|
| Airport | Halim Perdanakusuma International Airport (WIHH) |
| Time | Latitude | Longitude | Altitude | Speed | Heading |
|---|---|---|---|---|---|
| 2026-04-27 05:30 | -7.92977 | 112.71163 | 1754 ft | 0 kts | 8° |
| 2026-04-27 05:40 | -7.92987 | 112.71162 | 1754 ft | 2 kts | 8° |
| 2026-04-27 05:40 | -7.93000 | 112.71157 | 1754 ft | 2 kts | 53° |
| 2026-04-27 05:41 | -7.93005 | 112.71144 | 1755 ft | 0 kts | 91° |
| 2026-04-27 05:41 | -7.93004 | 112.71138 | 1755 ft | 1 kts | 98° |
| 2026-04-27 05:41 | -7.93004 | 112.71136 | 1755 ft | 0 kts | 96° |
| 2026-04-27 05:45 | -7.93004 | 112.71137 | 1755 ft | 0 kts | 96° |
| 2026-04-27 05:45 | -7.93006 | 112.71149 | 1754 ft | 2 kts | 96° |
| 2026-04-27 05:46 | -7.93008 | 112.71173 | 1754 ft | 3 kts | 96° |
| 2026-04-27 05:46 | -7.93011 | 112.71203 | 1754 ft | 4 kts | 96° |
| 2026-04-27 05:46 | -7.93015 | 112.71236 | 1754 ft | 5 kts | 96° |
| 2026-04-27 05:46 | -7.93019 | 112.71272 | 1754 ft | 5 kts | 96° |
| 2026-04-27 05:47 | -7.93023 | 112.71309 | 1754 ft | 5 kts | 96° |
| 2026-04-27 05:47 | -7.93027 | 112.71348 | 1753 ft | 5 kts | 94° |
| 2026-04-27 05:47 | -7.93029 | 112.71406 | 1753 ft | 12 kts | 93° |
| 2026-04-27 05:47 | -7.93083 | 112.71476 | 1753 ft | 14 kts | 163° |
| 2026-04-27 05:48 | -7.93181 | 112.71497 | 1753 ft | 14 kts | 167° |
| 2026-04-27 05:48 | -7.93280 | 112.71523 | 1753 ft | 14 kts | 165° |
| 2026-04-27 05:48 | -7.93378 | 112.71549 | 1753 ft | 14 kts | 165° |
| 2026-04-27 05:48 | -7.93500 | 112.71577 | 1753 ft | 19 kts | 168° |
| 2026-04-27 05:49 | -7.93635 | 112.71607 | 1753 ft | 19 kts | 164° |
| 2026-04-27 05:49 | -7.93766 | 112.71639 | 1753 ft | 19 kts | 167° |
| 2026-04-27 05:49 | -7.93879 | 112.71667 | 1753 ft | 10 kts | 156° |
| 2026-04-27 05:49 | -7.93940 | 112.71706 | 1753 ft | 9 kts | 159° |
| 2026-04-27 05:50 | -7.93965 | 112.71687 | 1754 ft | 2 kts | 300° |
| 2026-04-27 05:50 | -7.93952 | 112.71681 | 1753 ft | 1 kts | 348° |
| 2026-04-27 05:50 | -7.93938 | 112.71679 | 1753 ft | 2 kts | 349° |
| 2026-04-27 05:50 | -7.93875 | 112.71665 | 1753 ft | 30 kts | 348° |
| 2026-04-27 05:51 | -7.93332 | 112.71536 | 1753 ft | 128 kts | 344° |
| 2026-04-27 05:51 | -7.92202 | 112.71241 | 1937 ft | 191 kts | 344° |
| 2026-04-27 05:51 | -7.90895 | 112.70852 | 2930 ft | 207 kts | 344° |
| 2026-04-27 05:51 | -7.89462 | 112.70383 | 3559 ft | 240 kts | 340° |
| 2026-04-27 05:52 | -7.87860 | 112.69481 | 3972 ft | 288 kts | 317° |
| 2026-04-27 05:52 | -7.86805 | 112.67708 | 4817 ft | 315 kts | 285° |
| 2026-04-27 05:52 | -7.86826 | 112.65511 | 6200 ft | 319 kts | 254° |
| 2026-04-27 05:52 | -7.87886 | 112.63639 | 7533 ft | 319 kts | 223° |
| 2026-04-27 05:53 | -7.89726 | 112.62517 | 8933 ft | 312 kts | 193° |
| 2026-04-27 05:53 | -7.91809 | 112.62378 | 10332 ft | 303 kts | 167° |
| 2026-04-27 05:53 | -7.93827 | 112.62941 | 11405 ft | 308 kts | 158° |
| 2026-04-27 05:53 | -7.95915 | 112.63637 | 12301 ft | 323 kts | 159° |
| 2026-04-27 05:54 | -7.97970 | 112.64298 | 13169 ft | 334 kts | 159° |
| 2026-04-27 05:54 | -8.00166 | 112.64982 | 14268 ft | 338 kts | 160° |
| 2026-04-27 05:54 | -8.02412 | 112.65674 | 15233 ft | 346 kts | 160° |
| 2026-04-27 05:54 | -8.04724 | 112.66391 | 16206 ft | 352 kts | 160° |
| 2026-04-27 05:55 | -8.07109 | 112.67136 | 17129 ft | 359 kts | 161° |
| 2026-04-27 05:55 | -8.09469 | 112.67875 | 18046 ft | 364 kts | 160° |
| 2026-04-27 05:55 | -8.11815 | 112.68612 | 18880 ft | 370 kts | 160° |
| 2026-04-27 05:55 | -8.14323 | 112.69299 | 19661 ft | 379 kts | 166° |
| 2026-04-27 05:56 | -8.16830 | 112.69585 | 20422 ft | 387 kts | 176° |
| 2026-04-27 05:56 | -8.19521 | 112.69560 | 21195 ft | 394 kts | 179° |
| 2026-04-27 05:56 | -8.22245 | 112.69615 | 21936 ft | 398 kts | 173° |
| 2026-04-27 05:56 | -8.24907 | 112.70046 | 22672 ft | 401 kts | 164° |
| 2026-04-27 05:57 | -8.27534 | 112.70982 | 23379 ft | 404 kts | 153° |
| 2026-04-27 05:57 | -8.29956 | 112.72402 | 24091 ft | 407 kts | 142° |
| 2026-04-27 05:57 | -8.32106 | 112.74283 | 24824 ft | 409 kts | 131° |
| 2026-04-27 05:57 | -8.33882 | 112.76514 | 25476 ft | 412 kts | 122° |
| 2026-04-27 05:58 | -8.35343 | 112.79002 | 26123 ft | 416 kts | 116° |
| 2026-04-27 05:58 | -8.36632 | 112.81651 | 26804 ft | 419 kts | 113° |
| 2026-04-27 05:58 | -8.37730 | 112.84372 | 27429 ft | 423 kts | 107° |
| 2026-04-27 05:58 | -8.38396 | 112.87244 | 28033 ft | 426 kts | 97° |
| 2026-04-27 05:59 | -8.38550 | 112.90208 | 28649 ft | 428 kts | 87° |
| 2026-04-27 05:59 | -8.38171 | 112.93202 | 29293 ft | 431 kts | 77° |
| 2026-04-27 05:59 | -8.37262 | 112.96108 | 29887 ft | 434 kts | 66° |
| 2026-04-27 05:59 | -8.35894 | 112.98813 | 30553 ft | 435 kts | 59° |
| 2026-04-27 06:00 | -8.32367 | 113.03638 | 32555 ft | 421 kts | 48° |
| 2026-04-27 06:00 | -8.30342 | 113.05674 | 33739 ft | 410 kts | 41° |
| 2026-04-27 06:00 | -8.28152 | 113.07413 | 34664 ft | 405 kts | 35° |
| 2026-04-27 06:01 | -8.25727 | 113.08923 | 34986 ft | 414 kts | 28° |
| 2026-04-27 06:01 | -8.23111 | 113.10133 | 35401 ft | 419 kts | 21° |
| 2026-04-27 06:01 | -8.20311 | 113.10981 | 35896 ft | 422 kts | 10° |
| 2026-04-27 06:01 | -8.17355 | 113.10962 | 35970 ft | 425 kts | 350° |
| 2026-04-27 06:02 | -8.14600 | 113.09991 | 35999 ft | 423 kts | 336° |
| 2026-04-27 06:02 | -8.12063 | 113.08588 | 36015 ft | 420 kts | 332° |
| 2026-04-27 06:02 | -8.07032 | 113.05629 | 36075 ft | 420 kts | 332° |
| 2026-04-27 06:03 | -8.02235 | 113.02251 | 36126 ft | 424 kts | 323° |
| 2026-04-27 06:03 | -7.97659 | 112.98415 | 36159 ft | 426 kts | 322° |
| 2026-04-27 06:04 | -7.93121 | 112.94576 | 36116 ft | 425 kts | 323° |
| 2026-04-27 06:04 | -7.88590 | 112.90807 | 36059 ft | 424 kts | 323° |
| 2026-04-27 06:05 | -7.84021 | 112.87045 | 36004 ft | 425 kts | 323° |
| 2026-04-27 06:05 | -7.79531 | 112.83359 | 35954 ft | 425 kts | 323° |
| 2026-04-27 06:06 | -7.74919 | 112.79571 | 35907 ft | 425 kts | 324° |
| 2026-04-27 06:06 | -7.69918 | 112.76547 | 35900 ft | 418 kts | 342° |
| 2026-04-27 06:07 | -7.64289 | 112.75211 | 35889 ft | 413 kts | 356° |
| 2026-04-27 06:07 | -7.58587 | 112.75060 | 35872 ft | 410 kts | 4° |
| 2026-04-27 06:08 | -7.52891 | 112.75472 | 35853 ft | 409 kts | 7° |
| 2026-04-27 06:08 | -7.47247 | 112.76022 | 35841 ft | 410 kts | 6° |
| 2026-04-27 06:09 | -7.41582 | 112.75637 | 35835 ft | 418 kts | 346° |
| 2026-04-27 06:09 | -7.36773 | 112.73285 | 35837 ft | 424 kts | 328° |